Time;durP1;ratioP1;P1;durP2;ratioP2;P2;SDS_P1;SDS_P2;PMS_P1;PMS_P2;Temp;Humidity;BMP_temperature;BMP_pressure;BME280_temperature;BME280_humidity;BME280_pressure;Samples;Min_cycle;Max_cycle;Signal;HPM_P1;HPM_P2
2022/03/05 00:01:36;;;;;;;;;;;16.40;29.70;;;;;;8333477;28;19918;-49
2022/03/05 00:05:36;;;;;;;;;;;16.40;29.70;;;;;;8333574;28;19917;-48
2022/03/05 00:09:36;;;;;;;;;;;16.40;29.70;;;;;;8333577;28;20457;-49
2022/03/05 00:13:37;;;;;;;;;;;16.40;29.70;;;;;;8333252;28;19917;-49
2022/03/05 00:17:37;;;;;;;;;;;16.30;29.70;;;;;;8333168;28;19936;-50
2022/03/05 00:21:38;;;;;;;;;;;16.30;29.70;;;;;;8333244;28;20000;-49
2022/03/05 00:25:38;;;;;;;;;;;16.30;29.70;;;;;;8332592;28;19952;-49
2022/03/05 00:29:40;;;;;;;;;;;16.30;29.70;;;;;;8333433;28;19913;-50
2022/03/05 00:33:40;;;;;;;;;;;16.30;29.80;;;;;;8333563;28;19963;-50
2022/03/05 00:37:41;;;;;;;;;;;16.30;29.70;;;;;;8332314;28;19929;-49
2022/03/05 00:41:41;;;;;;;;;;;16.30;29.70;;;;;;8333027;28;20012;-50
2022/03/05 00:45:42;;;;;;;;;;;16.30;29.70;;;;;;8332818;28;19960;-52
2022/03/05 00:49:43;;;;;;;;;;;16.30;29.70;;;;;;8332119;28;19917;-47
2022/03/05 00:53:43;;;;;;;;;;;16.30;29.70;;;;;;8332544;28;19921;-51
2022/03/05 00:57:43;;;;;;;;;;;16.20;29.70;;;;;;8332021;28;19929;-52
2022/03/05 01:01:44;;;;;;;;;;;16.20;29.70;;;;;;8331771;28;19917;-50
2022/03/05 01:05:44;;;;;;;;;;;16.20;29.70;;;;;;8332242;28;19963;-50
2022/03/05 01:09:45;;;;;;;;;;;16.20;29.70;;;;;;8331797;28;19920;-48
2022/03/05 01:13:45;;;;;;;;;;;16.20;29.70;;;;;;8331613;28;19917;-49
2022/03/05 01:17:46;;;;;;;;;;;16.20;29.70;;;;;;8331752;28;19932;-51
2022/03/05 01:21:46;;;;;;;;;;;16.20;29.80;;;;;;8331542;28;19918;-50
2022/03/05 01:25:46;;;;;;;;;;;16.20;29.70;;;;;;8331137;28;19951;-50
2022/03/05 01:29:47;;;;;;;;;;;16.10;29.70;;;;;;8331233;28;20274;-48
2022/03/05 01:33:47;;;;;;;;;;;16.10;29.70;;;;;;8331388;28;20000;-51
2022/03/05 01:37:48;;;;;;;;;;;16.10;29.70;;;;;;8330625;28;19932;-48
2022/03/05 01:41:51;;;;;;;;;;;16.10;29.70;;;;;;8330871;28;19917;-48
2022/03/05 01:45:51;;;;;;;;;;;16.10;29.70;;;;;;8330758;28;19920;-49
2022/03/05 01:49:51;;;;;;;;;;;16.10;29.70;;;;;;8330240;28;19917;-49
2022/03/05 01:53:52;;;;;;;;;;;16.10;29.70;;;;;;8330749;28;19921;-48
2022/03/05 01:57:53;;;;;;;;;;;16.10;29.80;;;;;;8330472;28;19928;-49
2022/03/05 02:01:53;;;;;;;;;;;16.10;29.70;;;;;;8329951;28;20297;-49
2022/03/05 02:05:54;;;;;;;;;;;16.10;29.70;;;;;;8321356;28;20307;-48
2022/03/05 02:09:54;;;;;;;;;;;16.10;29.80;;;;;;8299213;28;19918;-52
2022/03/05 02:13:55;;;;;;;;;;;16.10;29.80;;;;;;8329935;28;19917;-49
2022/03/05 02:17:56;;;;;;;;;;;16.10;29.80;;;;;;8330500;28;19925;-48
2022/03/05 02:21:56;;;;;;;;;;;16.10;29.80;;;;;;8330450;28;19956;-49
2022/03/05 02:25:58;;;;;;;;;;;16.10;29.80;;;;;;8329648;28;19917;-49
2022/03/05 02:29:58;;;;;;;;;;;16.10;29.80;;;;;;8329883;28;19955;-50
2022/03/05 02:34:00;;;;;;;;;;;16.10;29.70;;;;;;8330210;28;20295;-48
2022/03/05 02:38:00;;;;;;;;;;;16.10;29.70;;;;;;8329428;28;20024;-48
2022/03/05 02:42:01;;;;;;;;;;;16.10;29.70;;;;;;8329817;28;19917;-49
2022/03/05 02:46:02;;;;;;;;;;;16.10;29.70;;;;;;8329664;28;19917;-50
2022/03/05 02:50:02;;;;;;;;;;;16.10;29.70;;;;;;8329297;28;19952;-48
2022/03/05 02:54:03;;;;;;;;;;;16.10;29.70;;;;;;8329791;28;19921;-48
2022/03/05 02:58:03;;;;;;;;;;;16.10;29.70;;;;;;8329595;28;19936;-47
2022/03/05 03:02:04;;;;;;;;;;;16.10;29.70;;;;;;8328955;28;20385;-50
2022/03/05 03:06:05;;;;;;;;;;;16.10;29.70;;;;;;8328138;28;19924;-49
2022/03/05 03:10:07;;;;;;;;;;;16.00;29.70;;;;;;8329845;28;19917;-48
2022/03/05 03:14:07;;;;;;;;;;;16.00;29.70;;;;;;8329588;28;19954;-48
2022/03/05 03:18:08;;;;;;;;;;;16.00;29.70;;;;;;8334105;28;20002;-49
2022/03/05 03:22:08;;;;;;;;;;;16.00;29.70;;;;;;8335231;28;19920;-49
2022/03/05 03:26:09;;;;;;;;;;;16.00;29.70;;;;;;8334785;28;19924;-48
2022/03/05 03:30:10;;;;;;;;;;;16.00;29.70;;;;;;8335208;28;19913;-49
2022/03/05 03:34:10;;;;;;;;;;;16.00;29.70;;;;;;8334766;28;19917;-48
2022/03/05 03:38:12;;;;;;;;;;;16.00;29.70;;;;;;8334238;28;20016;-49
2022/03/05 03:42:13;;;;;;;;;;;15.90;29.70;;;;;;8335033;28;19963;-50
2022/03/05 03:46:13;;;;;;;;;;;15.90;29.70;;;;;;8334583;28;19918;-47
2022/03/05 03:50:15;;;;;;;;;;;15.90;29.70;;;;;;8334122;28;19928;-53
2022/03/05 03:54:15;;;;;;;;;;;15.90;29.70;;;;;;8334353;28;20435;-48
2022/03/05 03:58:16;;;;;;;;;;;15.90;29.70;;;;;;8334009;28;19978;-48
2022/03/05 04:02:16;;;;;;;;;;;15.90;29.70;;;;;;8333814;28;19928;-48
2022/03/05 04:06:16;;;;;;;;;;;15.90;29.70;;;;;;8333947;28;20324;-49
2022/03/05 04:10:17;;;;;;;;;;;15.90;29.70;;;;;;8334195;28;20297;-52
2022/03/05 04:14:18;;;;;;;;;;;15.80;29.70;;;;;;8333294;28;20447;-48
2022/03/05 04:18:18;;;;;;;;;;;15.80;30.10;;;;;;8332183;28;20015;-49
2022/03/05 04:22:19;;;;;;;;;;;15.80;29.80;;;;;;8333537;28;19914;-48
2022/03/05 04:26:19;;;;;;;;;;;15.80;29.80;;;;;;8332284;28;19924;-48
2022/03/05 04:30:19;;;;;;;;;;;15.80;29.80;;;;;;8333345;28;19968;-49
2022/03/05 04:34:20;;;;;;;;;;;15.80;29.80;;;;;;8332869;28;19924;-49
2022/03/05 04:38:21;;;;;;;;;;;15.80;29.80;;;;;;8331051;28;19932;-50
2022/03/05 04:42:21;;;;;;;;;;;15.80;29.80;;;;;;8332910;28;19913;-47
2022/03/05 04:46:22;;;;;;;;;;;15.80;29.80;;;;;;8332774;28;19925;-48
2022/03/05 04:50:22;;;;;;;;;;;15.80;29.80;;;;;;8332376;28;19920;-47
2022/03/05 04:54:25;;;;;;;;;;;15.80;29.80;;;;;;8332440;28;19975;-48
2022/03/05 04:58:25;;;;;;;;;;;15.80;29.80;;;;;;8332185;28;19928;-47
2022/03/05 05:02:26;;;;;;;;;;;15.70;29.80;;;;;;8331793;28;20321;-47
2022/03/05 05:06:26;;;;;;;;;;;15.70;29.80;;;;;;8327329;28;19925;-48
2022/03/05 05:10:27;;;;;;;;;;;15.70;29.80;;;;;;8299057;28;19967;-49
2022/03/05 05:14:27;;;;;;;;;;;15.70;29.80;;;;;;8327914;28;19924;-52
2022/03/05 05:18:28;;;;;;;;;;;15.70;29.80;;;;;;8331531;28;19947;-52
2022/03/05 05:22:29;;;;;;;;;;;15.70;29.80;;;;;;8331035;28;19917;-50
2022/03/05 05:26:30;;;;;;;;;;;15.70;29.80;;;;;;8331627;28;20297;-49
2022/03/05 05:30:30;;;;;;;;;;;15.70;29.80;;;;;;8331411;28;19920;-47
2022/03/05 05:34:31;;;;;;;;;;;15.70;29.80;;;;;;8330756;28;19925;-48
2022/03/05 05:38:31;;;;;;;;;;;15.70;29.80;;;;;;8330325;28;19936;-48
2022/03/05 05:42:32;;;;;;;;;;;15.70;29.70;;;;;;8330969;28;19917;-49
2022/03/05 05:46:32;;;;;;;;;;;15.70;29.70;;;;;;8330527;28;19917;-47
2022/03/05 05:50:33;;;;;;;;;;;15.80;29.70;;;;;;8331260;28;20441;-49
2022/03/05 05:54:33;;;;;;;;;;;15.80;29.70;;;;;;8330774;28;19921;-47
2022/03/05 05:58:34;;;;;;;;;;;15.80;30.00;;;;;;8330260;28;19921;-48
2022/03/05 06:02:34;;;;;;;;;;;15.80;29.50;;;;;;8330435;28;20024;-49
2022/03/05 06:06:35;;;;;;;;;;;15.80;29.60;;;;;;8330430;28;19952;-48
2022/03/05 06:10:35;;;;;;;;;;;15.80;29.60;;;;;;8330179;28;19917;-47
2022/03/05 06:14:36;;;;;;;;;;;15.80;29.50;;;;;;8330553;28;19917;-51
2022/03/05 06:18:36;;;;;;;;;;;15.80;29.50;;;;;;8330213;28;19925;-48
2022/03/05 06:22:37;;;;;;;;;;;15.80;29.50;;;;;;8329610;28;19913;-47
2022/03/05 06:26:37;;;;;;;;;;;15.80;29.60;;;;;;8330005;28;19921;-46
2022/03/05 06:30:38;;;;;;;;;;;15.80;29.60;;;;;;8328962;28;20369;-48
2022/03/05 06:34:38;;;;;;;;;;;15.80;29.50;;;;;;8329479;28;19920;-48
2022/03/05 06:38:39;;;;;;;;;;;15.90;29.50;;;;;;8329984;28;19925;-46
2022/03/05 06:42:41;;;;;;;;;;;15.90;29.30;;;;;;8329683;28;19924;-48
2022/03/05 06:46:41;;;;;;;;;;;16.00;29.30;;;;;;8328090;28;19921;-48
2022/03/05 06:50:42;;;;;;;;;;;15.90;29.30;;;;;;8332917;28;20012;-46
2022/03/05 06:54:42;;;;;;;;;;;15.90;29.40;;;;;;8335908;28;19921;-48
2022/03/05 06:58:43;;;;;;;;;;;15.80;29.40;;;;;;8335657;28;19921;-48
2022/03/05 07:02:43;;;;;;;;;;;15.80;29.40;;;;;;8335876;28;19991;-47
2022/03/05 07:06:43;;;;;;;;;;;15.80;29.50;;;;;;8335977;28;19921;-49
2022/03/05 07:10:44;;;;;;;;;;;15.80;29.60;;;;;;8335497;28;19928;-49
2022/03/05 07:14:48;;;;;;;;;;;15.80;30.00;;;;;;8335437;28;19921;-48
2022/03/05 07:18:49;;;;;;;;;;;15.80;29.60;;;;;;8335358;28;19921;-48
2022/03/05 07:22:49;;;;;;;;;;;15.70;29.60;;;;;;8334818;28;19924;-48
2022/03/05 07:26:50;;;;;;;;;;;15.70;30.00;;;;;;8335374;28;19913;-51
2022/03/05 07:30:51;;;;;;;;;;;15.70;29.60;;;;;;8335348;28;19956;-47
2022/03/05 07:34:52;;;;;;;;;;;15.70;29.60;;;;;;8334465;28;20017;-52
2022/03/05 07:38:52;;;;;;;;;;;15.70;29.60;;;;;;8334834;28;19925;-47
2022/03/05 07:42:53;;;;;;;;;;;15.70;29.70;;;;;;8334608;28;19920;-48
2022/03/05 07:46:54;;;;;;;;;;;15.70;29.70;;;;;;8334376;28;19916;-48
2022/03/05 07:50:54;;;;;;;;;;;15.60;29.60;;;;;;8334119;28;19921;-51
2022/03/05 07:54:55;;;;;;;;;;;15.70;29.70;;;;;;8334067;28;20071;-47
2022/03/05 07:58:55;;;;;;;;;;;15.70;29.70;;;;;;8333393;28;19979;-50
2022/03/05 08:02:55;;;;;;;;;;;15.70;29.70;;;;;;8331055;28;20373;-48
2022/03/05 08:06:56;;;;;;;;;;;15.80;29.60;;;;;;8333982;28;19953;-50
2022/03/05 08:10:56;;;;;;;;;;;15.80;29.60;;;;;;8333144;28;19917;-51
2022/03/05 08:14:57;;;;;;;;;;;15.80;29.60;;;;;;8333626;28;19917;-46
2022/03/05 08:18:58;;;;;;;;;;;15.80;29.60;;;;;;8333281;28;19921;-52
2022/03/05 08:22:59;;;;;;;;;;;15.80;29.60;;;;;;8332963;28;19939;-48
2022/03/05 08:26:59;;;;;;;;;;;15.80;29.70;;;;;;8333715;28;19913;-47
2022/03/05 08:30:59;;;;;;;;;;;15.80;29.60;;;;;;8332931;28;20435;-47
2022/03/05 08:35:00;;;;;;;;;;;15.80;29.70;;;;;;8332433;28;20008;-50
2022/03/05 08:39:00;;;;;;;;;;;15.80;29.70;;;;;;8332799;28;19932;-51
2022/03/05 08:43:01;;;;;;;;;;;15.80;29.70;;;;;;8332811;28;19956;-49
2022/03/05 08:47:01;;;;;;;;;;;15.80;29.70;;;;;;8332353;28;20396;-48
2022/03/05 08:51:02;;;;;;;;;;;15.80;29.70;;;;;;8332531;28;19944;-49
2022/03/05 08:55:07;;;;;;;;;;;15.80;29.70;;;;;;8332224;28;19972;-49
2022/03/05 08:59:07;;;;;;;;;;;15.80;29.70;;;;;;8331820;28;19921;-52
2022/03/05 09:03:08;;;;;;;;;;;15.80;29.70;;;;;;8332123;28;19920;-52
2022/03/05 09:07:08;;;;;;;;;;;15.80;29.70;;;;;;8332156;28;20288;-52
2022/03/05 09:11:09;;;;;;;;;;;15.90;29.80;;;;;;8331300;28;19916;-53
2022/03/05 09:15:10;;;;;;;;;;;15.80;29.70;;;;;;8331372;28;20340;-51
2022/03/05 09:19:10;;;;;;;;;;;15.90;29.70;;;;;;8331764;28;19925;-49
2022/03/05 09:23:11;;;;;;;;;;;15.90;29.70;;;;;;8330909;28;20382;-52
2022/03/05 09:27:11;;;;;;;;;;;15.90;29.80;;;;;;8331812;28;20361;-48
2022/03/05 09:31:12;;;;;;;;;;;15.90;29.80;;;;;;8305042;28;19918;-48
2022/03/05 09:35:12;;;;;;;;;;;15.90;29.70;;;;;;8304272;28;19924;-49
2022/03/05 09:39:13;;;;;;;;;;;15.90;29.70;;;;;;8330902;28;19917;-52
2022/03/05 09:43:13;;;;;;;;;;;15.90;29.70;;;;;;8331017;28;19945;-46
2022/03/05 09:47:14;;;;;;;;;;;15.90;29.70;;;;;;8330582;28;19924;-48
2022/03/05 09:51:14;;;;;;;;;;;16.00;29.70;;;;;;8330897;28;19964;-51
2022/03/05 09:55:15;;;;;;;;;;;16.00;29.70;;;;;;8330532;28;20398;-49
2022/03/05 09:59:15;;;;;;;;;;;16.00;29.70;;;;;;8330152;28;19967;-52
2022/03/05 10:03:16;;;;;;;;;;;16.00;29.70;;;;;;8330376;28;20000;-50
2022/03/05 10:07:18;;;;;;;;;;;16.00;29.70;;;;;;8330620;28;20772;-49
2022/03/05 10:11:19;;;;;;;;;;;16.00;29.70;;;;;;8329778;28;19917;-49
2022/03/05 10:15:22;;;;;;;;;;;16.00;29.70;;;;;;8330122;28;19986;-49
2022/03/05 10:19:23;;;;;;;;;;;16.00;29.70;;;;;;8330021;28;19917;-49
2022/03/05 10:23:24;;;;;;;;;;;16.10;30.10;;;;;;8329729;28;19917;-51
2022/03/05 10:27:29;;;;;;;;;;;16.10;29.80;;;;;;8341015;28;19917;-52
2022/03/05 10:31:29;;;;;;;;;;;16.10;29.70;;;;;;8340483;28;19917;-52
2022/03/05 10:35:30;;;;;;;;;;;16.10;29.70;;;;;;8340498;28;20381;-52
2022/03/05 10:39:30;;;;;;;;;;;16.10;29.70;;;;;;8340839;28;19917;-49
2022/03/05 10:43:31;;;;;;;;;;;16.10;29.70;;;;;;8340350;28;19917;-50
2022/03/05 10:47:38;;;;;;;;;;;16.10;29.60;;;;;;8341550;28;19957;-48
2022/03/05 10:51:39;;;;;;;;;;;16.10;29.60;;;;;;8340640;28;19924;-49
2022/03/05 10:55:40;;;;;;;;;;;16.20;29.70;;;;;;8339980;28;19965;-48
2022/03/05 10:59:41;;;;;;;;;;;16.20;29.70;;;;;;8340854;28;19929;-51
2022/03/05 11:03:43;;;;;;;;;;;16.20;29.70;;;;;;8338752;28;20328;-52
2022/03/05 11:07:43;;;;;;;;;;;16.20;29.70;;;;;;8340060;28;20380;-49
2022/03/05 11:11:44;;;;;;;;;;;16.20;29.60;;;;;;8340148;28;20004;-49
2022/03/05 11:15:45;;;;;;;;;;;16.20;29.60;;;;;;8339981;28;19925;-50
2022/03/05 11:19:46;;;;;;;;;;;16.30;29.50;;;;;;8339742;28;20377;-51
2022/03/05 11:23:46;;;;;;;;;;;16.40;29.50;;;;;;8340468;28;19943;-48
2022/03/05 11:27:50;;;;;;;;;;;16.40;29.50;;;;;;8340203;28;19920;-51
2022/03/05 11:31:52;;;;;;;;;;;16.50;29.50;;;;;;8339458;28;19917;-50
2022/03/05 11:36:01;;;;;;;;;;;16.50;29.40;;;;;;8338590;28;20016;-53
2022/03/05 11:40:04;;;;;;;;;;;16.50;29.40;;;;;;8334705;28;20028;-52
2022/03/05 11:44:14;;;;;;;;;;;16.60;29.40;;;;;;8334180;28;19924;-48
2022/03/05 11:48:22;;;;;;;;;;;16.60;29.40;;;;;;8334595;28;19917;-49
2022/03/05 11:52:23;;;;;;;;;;;16.60;29.40;;;;;;8334347;28;19940;-48
2022/03/05 11:56:24;;;;;;;;;;;16.60;29.40;;;;;;8333602;28;20348;-48
2022/03/05 12:00:25;;;;;;;;;;;16.60;29.40;;;;;;8333798;28;19979;-52
2022/03/05 12:04:28;;;;;;;;;;;16.60;29.50;;;;;;8333880;28;19927;-51
2022/03/05 12:08:28;;;;;;;;;;;16.60;29.40;;;;;;8334066;28;20281;-48
2022/03/05 12:12:49;;;;;;;;;;;16.60;29.40;;;;;;8333529;28;19924;-53
2022/03/05 12:16:49;;;;;;;;;;;16.60;29.50;;;;;;8332873;28;19932;-51
2022/03/05 12:20:49;;;;;;;;;;;16.60;29.50;;;;;;8333346;28;19937;-53
2022/03/05 12:24:50;;;;;;;;;;;16.70;29.60;;;;;;8333278;28;19921;-51
2022/03/05 12:28:51;;;;;;;;;;;16.70;29.50;;;;;;8332892;28;20000;-49
2022/03/05 12:32:55;;;;;;;;;;;16.70;29.60;;;;;;8333479;28;19917;-50
2022/03/05 12:36:55;;;;;;;;;;;16.70;29.50;;;;;;8333086;28;20369;-51
2022/03/05 12:40:56;;;;;;;;;;;16.70;29.60;;;;;;8332393;28;19925;-49
2022/03/05 12:44:56;;;;;;;;;;;16.70;29.60;;;;;;8332697;28;20291;-50
2022/03/05 12:49:03;;;;;;;;;;;16.70;29.60;;;;;;8332189;28;19948;-52
2022/03/05 12:53:07;;;;;;;;;;;16.70;29.60;;;;;;8332212;28;19921;-52
2022/03/05 12:57:08;;;;;;;;;;;16.70;29.60;;;;;;8332182;28;19925;-50
2022/03/05 13:01:09;;;;;;;;;;;16.70;29.60;;;;;;8332069;28;20004;-52
2022/03/05 13:05:13;;;;;;;;;;;16.70;29.60;;;;;;8331657;28;20349;-51
2022/03/05 13:09:17;;;;;;;;;;;16.70;29.60;;;;;;8331865;28;19914;-49
2022/03/05 13:13:17;;;;;;;;;;;16.70;29.60;;;;;;8332142;28;20002;-49
2022/03/05 13:17:17;;;;;;;;;;;16.70;29.60;;;;;;8331145;28;19925;-53
2022/03/05 13:21:18;;;;;;;;;;;16.70;29.60;;;;;;8331528;28;19981;-49
2022/03/05 13:25:18;;;;;;;;;;;16.70;29.60;;;;;;8331394;28;19914;-52
2022/03/05 13:29:19;;;;;;;;;;;16.70;29.50;;;;;;8330977;28;19917;-52
2022/03/05 13:33:52;;;;;;;;;;;16.70;29.60;;;;;;8331364;28;19921;-53
2022/03/05 13:37:53;;;;;;;;;;;16.80;29.60;;;;;;8297426;28;19931;-52
2022/03/05 13:41:54;;;;;;;;;;;16.80;29.60;;;;;;8330928;28;20374;-51
2022/03/05 13:45:55;;;;;;;;;;;16.80;29.60;;;;;;8330883;28;19975;-51
2022/03/05 13:50:03;;;;;;;;;;;16.80;29.60;;;;;;8330357;28;19960;-52
2022/03/05 13:54:05;;;;;;;;;;;16.80;29.60;;;;;;8331179;28;19928;-52
2022/03/05 13:58:18;;;;;;;;;;;16.80;29.50;;;;;;8330727;28;19929;-49
2022/03/05 14:02:18;;;;;;;;;;;16.80;29.60;;;;;;8326137;28;19918;-52
2022/03/05 14:06:19;;;;;;;;;;;16.80;29.60;;;;;;8312974;28;19913;-52
2022/03/05 14:10:20;;;;;;;;;;;16.80;29.60;;;;;;8330341;28;19917;-50
2022/03/05 14:14:21;;;;;;;;;;;16.80;29.50;;;;;;8330098;28;19920;-51
2022/03/05 14:18:21;;;;;;;;;;;16.80;29.50;;;;;;8330281;28;19925;-50
2022/03/05 14:22:22;;;;;;;;;;;16.80;29.50;;;;;;8330183;28;20277;-53
2022/03/05 14:26:31;;;;;;;;;;;16.80;30.00;;;;;;8329625;28;19917;-51
2022/03/05 14:30:32;;;;;;;;;;;16.80;29.50;;;;;;8330047;28;19920;-49
2022/03/05 14:34:33;;;;;;;;;;;16.80;29.60;;;;;;8329906;28;19924;-49
2022/03/05 14:38:34;;;;;;;;;;;16.80;29.50;;;;;;8329817;28;20000;-49
2022/03/05 14:42:34;;;;;;;;;;;16.80;29.50;;;;;;8329842;28;20007;-52
2022/03/05 14:46:36;;;;;;;;;;;16.80;29.40;;;;;;8328599;28;19913;-50
2022/03/05 14:50:37;;;;;;;;;;;16.80;29.50;;;;;;8329658;28;20028;-48
2022/03/05 14:54:38;;;;;;;;;;;16.80;29.40;;;;;;8328336;28;20005;-52
2022/03/05 14:58:38;;;;;;;;;;;16.80;29.40;;;;;;8329387;28;20293;-54
2022/03/05 15:02:39;;;;;;;;;;;16.80;29.40;;;;;;8329384;28;19921;-49
2022/03/05 15:06:40;;;;;;;;;;;16.80;29.40;;;;;;8329652;28;19936;-54
2022/03/05 15:10:41;;;;;;;;;;;16.80;29.40;;;;;;8330241;28;19923;-50
2022/03/05 15:14:41;;;;;;;;;;;16.80;29.40;;;;;;8335898;28;20455;-50
2022/03/05 15:18:42;;;;;;;;;;;16.80;29.40;;;;;;8335681;28;19932;-48
2022/03/05 15:22:42;;;;;;;;;;;16.80;29.40;;;;;;8334796;28;20008;-52
2022/03/05 15:26:43;;;;;;;;;;;16.80;29.40;;;;;;8335404;28;19917;-50
2022/03/05 15:30:43;;;;;;;;;;;16.80;29.40;;;;;;8335094;28;19913;-48
2022/03/05 15:34:43;;;;;;;;;;;16.80;29.40;;;;;;8335399;28;19924;-50
2022/03/05 15:38:44;;;;;;;;;;;16.80;29.40;;;;;;8334817;28;19961;-48
2022/03/05 15:42:45;;;;;;;;;;;16.80;29.40;;;;;;8334922;28;19917;-48
2022/03/05 15:46:46;;;;;;;;;;;16.80;29.40;;;;;;8334183;28;19940;-47
2022/03/05 15:50:46;;;;;;;;;;;16.80;29.40;;;;;;8334754;28;19917;-48
2022/03/05 15:54:47;;;;;;;;;;;16.80;29.50;;;;;;8334674;28;20396;-50
2022/03/05 15:58:47;;;;;;;;;;;16.80;29.40;;;;;;8333859;28;19925;-48
2022/03/05 16:02:48;;;;;;;;;;;16.80;29.40;;;;;;8334176;28;19917;-48
2022/03/05 16:06:50;;;;;;;;;;;16.80;29.40;;;;;;8334009;28;19914;-48
2022/03/05 16:10:51;;;;;;;;;;;16.80;29.40;;;;;;8333478;28;19924;-51
2022/03/05 16:14:51;;;;;;;;;;;16.80;29.40;;;;;;8334011;28;20338;-48
2022/03/05 16:18:52;;;;;;;;;;;16.80;29.40;;;;;;8333603;28;20015;-49
2022/03/05 16:22:52;;;;;;;;;;;16.80;29.50;;;;;;8332234;28;19917;-49
2022/03/05 16:26:52;;;;;;;;;;;16.80;29.50;;;;;;8333512;28;20274;-47
2022/03/05 16:30:53;;;;;;;;;;;16.80;29.50;;;;;;8333341;28;19945;-49
2022/03/05 16:34:53;;;;;;;;;;;16.80;29.50;;;;;;8333065;28;19917;-49
2022/03/05 16:38:54;;;;;;;;;;;16.80;29.50;;;;;;8332968;28;19925;-49
2022/03/05 16:42:56;;;;;;;;;;;16.80;29.50;;;;;;8332983;28;20275;-49
2022/03/05 16:46:57;;;;;;;;;;;16.80;29.50;;;;;;8332401;28;20678;-48
2022/03/05 16:50:57;;;;;;;;;;;16.80;29.50;;;;;;8332571;28;19917;-48
2022/03/05 16:54:59;;;;;;;;;;;16.80;29.50;;;;;;8332983;28;19925;-49
2022/03/05 16:58:59;;;;;;;;;;;16.80;29.50;;;;;;8332155;28;20425;-48
2022/03/05 17:02:59;;;;;;;;;;;16.80;29.50;;;;;;8332387;28;19929;-49
2022/03/05 17:07:00;;;;;;;;;;;16.80;29.50;;;;;;8332503;28;19917;-47
2022/03/05 17:11:00;;;;;;;;;;;16.80;29.50;;;;;;8330849;28;20000;-50
2022/03/05 17:15:01;;;;;;;;;;;16.80;29.50;;;;;;8332245;28;19917;-52
2022/03/05 17:19:02;;;;;;;;;;;16.80;29.50;;;;;;8332001;28;19978;-49
2022/03/05 17:23:03;;;;;;;;;;;16.80;29.50;;;;;;8331084;28;19920;-49
2022/03/05 17:27:04;;;;;;;;;;;16.80;29.50;;;;;;8331542;28;19914;-49
2022/03/05 17:31:04;;;;;;;;;;;16.80;29.50;;;;;;8331651;28;19917;-49
2022/03/05 17:35:05;;;;;;;;;;;16.80;29.50;;;;;;8331000;28;19917;-50
2022/03/05 17:39:06;;;;;;;;;;;16.80;29.60;;;;;;8331082;28;19928;-48
2022/03/05 17:43:07;;;;;;;;;;;16.80;29.50;;;;;;8329671;28;19975;-48
2022/03/05 17:47:07;;;;;;;;;;;16.80;29.50;;;;;;8330567;28;19917;-48
2022/03/05 17:51:08;;;;;;;;;;;16.70;29.50;;;;;;8330960;28;19967;-48
2022/03/05 17:55:09;;;;;;;;;;;16.70;29.50;;;;;;8331139;28;19921;-49
2022/03/05 17:59:09;;;;;;;;;;;16.70;29.60;;;;;;8330019;28;19964;-51
2022/03/05 18:03:10;;;;;;;;;;;16.70;29.50;;;;;;8330715;28;19917;-48
2022/03/05 18:07:10;;;;;;;;;;;16.70;29.40;;;;;;8330655;28;19914;-47
2022/03/05 18:11:13;;;;;;;;;;;16.70;29.40;;;;;;8330107;28;19917;-49
2022/03/05 18:15:13;;;;;;;;;;;16.70;29.50;;;;;;8329650;28;19923;-49
2022/03/05 18:19:14;;;;;;;;;;;16.70;29.50;;;;;;8330454;28;19937;-49
2022/03/05 18:23:14;;;;;;;;;;;16.70;29.40;;;;;;8329993;28;19917;-51
2022/03/05 18:27:15;;;;;;;;;;;16.70;29.40;;;;;;8330365;28;19967;-48
2022/03/05 18:31:15;;;;;;;;;;;16.70;29.50;;;;;;8330357;28;19924;-47
2022/03/05 18:35:16;;;;;;;;;;;16.70;29.50;;;;;;8329831;28;19921;-50
2022/03/05 18:39:16;;;;;;;;;;;16.70;29.50;;;;;;8330085;28;19925;-48
2022/03/05 18:43:17;;;;;;;;;;;16.60;29.40;;;;;;8330353;28;19979;-49
2022/03/05 18:47:17;;;;;;;;;;;16.70;29.50;;;;;;8333288;28;19928;-51
2022/03/05 18:51:18;;;;;;;;;;;16.70;29.50;;;;;;8336673;28;19917;-51
2022/03/05 18:55:18;;;;;;;;;;;16.70;29.50;;;;;;8336235;28;19921;-49
2022/03/05 18:59:19;;;;;;;;;;;16.60;29.50;;;;;;8349018;28;19929;-51
2022/03/05 19:03:19;;;;;;;;;;;16.60;29.50;;;;;;8353734;28;19914;-49
2022/03/05 19:07:20;;;;;;;;;;;16.70;29.50;;;;;;8336001;28;19940;-52
2022/03/05 19:11:20;;;;;;;;;;;16.70;29.50;;;;;;8335559;28;20004;-49
2022/03/05 19:15:21;;;;;;;;;;;16.60;29.40;;;;;;8335593;28;19978;-48
2022/03/05 19:19:22;;;;;;;;;;;16.60;29.40;;;;;;8334072;28;19976;-49
2022/03/05 19:23:23;;;;;;;;;;;16.60;29.40;;;;;;8334999;28;19924;-48
2022/03/05 19:27:24;;;;;;;;;;;16.60;29.40;;;;;;8335293;28;19917;-49
2022/03/05 19:31:24;;;;;;;;;;;16.60;29.40;;;;;;8335322;28;19921;-50
2022/03/05 19:35:25;;;;;;;;;;;16.60;29.40;;;;;;8334658;28;20336;-50
2022/03/05 19:39:25;;;;;;;;;;;16.60;29.40;;;;;;8334837;28;19968;-48
2022/03/05 19:43:26;;;;;;;;;;;16.60;29.40;;;;;;8334970;28;19924;-49
2022/03/05 19:47:26;;;;;;;;;;;16.60;29.40;;;;;;8334183;28;20378;-49
2022/03/05 19:51:27;;;;;;;;;;;16.60;29.40;;;;;;8334752;28;19913;-49
2022/03/05 19:55:27;;;;;;;;;;;16.60;29.40;;;;;;8334013;28;20004;-52
2022/03/05 19:59:28;;;;;;;;;;;16.60;29.40;;;;;;8333252;28;19925;-51
2022/03/05 20:03:28;;;;;;;;;;;16.60;29.40;;;;;;8332853;28;19914;-50
2022/03/05 20:07:29;;;;;;;;;;;16.60;29.40;;;;;;8332617;28;19963;-48
2022/03/05 20:11:29;;;;;;;;;;;16.60;29.40;;;;;;8334223;28;19920;-51
2022/03/05 20:15:30;;;;;;;;;;;16.50;29.40;;;;;;8333906;28;19964;-50
2022/03/05 20:19:31;;;;;;;;;;;16.50;29.40;;;;;;8333466;28;19920;-47
2022/03/05 20:23:31;;;;;;;;;;;16.60;29.40;;;;;;8333624;28;20319;-50
2022/03/05 20:27:32;;;;;;;;;;;16.50;29.40;;;;;;8333751;28;19913;-52
2022/03/05 20:31:33;;;;;;;;;;;16.50;29.40;;;;;;8333274;28;19918;-50
2022/03/05 20:35:33;;;;;;;;;;;16.60;29.40;;;;;;8333117;28;19956;-53
2022/03/05 20:39:34;;;;;;;;;;;16.50;29.40;;;;;;8333132;28;19924;-53
2022/03/05 20:43:34;;;;;;;;;;;16.60;29.40;;;;;;8332777;28;19913;-52
2022/03/05 20:47:35;;;;;;;;;;;16.50;29.40;;;;;;8332778;28;20354;-48
2022/03/05 20:51:35;;;;;;;;;;;16.50;29.40;;;;;;8333027;28;20385;-53
2022/03/05 20:55:36;;;;;;;;;;;16.50;29.40;;;;;;8332048;28;20288;-51
2022/03/05 20:59:37;;;;;;;;;;;16.50;29.40;;;;;;8332661;28;19921;-48
2022/03/05 21:03:37;;;;;;;;;;;16.50;29.40;;;;;;8332550;28;19914;-49
2022/03/05 21:07:37;;;;;;;;;;;16.50;29.40;;;;;;8331737;28;19951;-50
2022/03/05 21:11:38;;;;;;;;;;;16.50;29.40;;;;;;8331982;28;19921;-48
2022/03/05 21:15:39;;;;;;;;;;;16.50;29.40;;;;;;8331792;28;19918;-48
2022/03/05 21:19:39;;;;;;;;;;;16.50;29.40;;;;;;8331220;28;20374;-50
2022/03/05 21:23:40;;;;;;;;;;;16.50;29.40;;;;;;8331811;28;20386;-48
2022/03/05 21:27:40;;;;;;;;;;;16.50;29.40;;;;;;8331833;28;20004;-48
2022/03/05 21:31:40;;;;;;;;;;;16.40;29.30;;;;;;8331148;28;19917;-48
2022/03/05 21:35:41;;;;;;;;;;;16.50;29.30;;;;;;8331170;28;19917;-49
2022/03/05 21:39:41;;;;;;;;;;;16.50;29.30;;;;;;8331190;28;19992;-48
2022/03/05 21:43:42;;;;;;;;;;;16.40;29.30;;;;;;8330736;28;19917;-50
2022/03/05 21:47:42;;;;;;;;;;;16.50;29.30;;;;;;8331052;28;19913;-49
2022/03/05 21:51:43;;;;;;;;;;;16.40;29.20;;;;;;8331248;28;19924;-50
2022/03/05 21:55:43;;;;;;;;;;;16.40;29.30;;;;;;8330229;28;19929;-51
2022/03/05 21:59:46;;;;;;;;;;;16.40;29.20;;;;;;8329494;28;19921;-47
2022/03/05 22:03:48;;;;;;;;;;;16.40;29.30;;;;;;8327410;28;21300;-49
2022/03/05 22:07:49;;;;;;;;;;;16.40;29.30;;;;;;8330066;28;20245;-47
2022/03/05 22:11:49;;;;;;;;;;;16.40;29.20;;;;;;8330866;28;19917;-47
2022/03/05 22:15:49;;;;;;;;;;;16.30;29.30;;;;;;8330265;28;19923;-50
2022/03/05 22:19:52;;;;;;;;;;;16.40;29.30;;;;;;8329139;28;19917;-48
2022/03/05 22:23:52;;;;;;;;;;;16.40;29.30;;;;;;8330474;28;20019;-49
2022/03/05 22:27:53;;;;;;;;;;;16.30;29.30;;;;;;8330332;28;19913;-50
2022/03/05 22:31:53;;;;;;;;;;;16.30;29.30;;;;;;8329884;28;19913;-48
2022/03/05 22:35:54;;;;;;;;;;;16.30;29.20;;;;;;8329846;28;19918;-50
2022/03/05 22:39:55;;;;;;;;;;;16.30;29.30;;;;;;8329935;28;19917;-52
2022/03/05 22:43:55;;;;;;;;;;;16.30;29.30;;;;;;8329335;28;20362;-49
2022/03/05 22:47:56;;;;;;;;;;;16.30;29.30;;;;;;8330036;28;19917;-50
2022/03/05 22:51:56;;;;;;;;;;;16.30;29.30;;;;;;8329752;28;19921;-52
2022/03/05 22:55:57;;;;;;;;;;;16.30;29.30;;;;;;8329193;28;19921;-49
2022/03/05 22:59:57;;;;;;;;;;;16.30;29.30;;;;;;8329491;28;19963;-49
2022/03/05 23:12:36;;;;;;;;;;;16.20;29.20;;;;;;8328785;28;20026;-47
2022/03/05 23:16:36;;;;;;;;;;;16.20;29.20;;;;;;8328539;28;19929;-48
2022/03/05 23:20:37;;;;;;;;;;;16.20;29.20;;;;;;8329118;28;19921;-48
2022/03/05 23:24:37;;;;;;;;;;;16.20;29.20;;;;;;8329338;28;19921;-48
2022/03/05 23:28:38;;;;;;;;;;;16.20;29.20;;;;;;8328733;28;19917;-48